Terminal Aerodrome Forecast
Issued by NWS Anchorage, AK

Home | Current Version | Previous Version | Text Only | Print | Product List | Glossary On
Versions: 1 2 3 4 5 6 7 8 9 10 11 12 13 14 15 16 17 18 19 20 21 22 23 24 25 26 27 28 29 30 31 32 33 34 35 36 37 38 39 40 41 42 43 44
210
FTAK31 PANC 272105 AAB
TAFANC
TAF AMD
PANC 272105Z 2721/2824 27007KT P6SM SCT050 BKN060 OVC080
      TEMPO 2722/2724 15011G22KT
     FM280000 15012G25KT P6SM -SHRA BKN040 OVC080
     FM280900 15010KT P6SM VCSH SCT050 OVC100
     FM282100 16010G22KT P6SM BKN050 OVC100=

USA.gov is the U.S. government's official web portal to all federal, state and local government web resources and services.